Terminal Aerodrome Forecast
Issued by NWS

Home | Current Version | Previous Version | Text Only | Print | Product List | Glossary On
Versions: 1 2 3 4 5 6 7 8 9 10 11 12 13 14 15
000
FTUS46 KSGX 181700
TAFONT
TAF
KONT 181732Z 1818/1924 26006KT P6SM SCT015 BKN027
      TEMPO 1818/1820 5SM HZ
     FM182100 25010KT P6SM SCT025 BKN120
     FM190400 VRB04KT P6SM SCT025
     FM190800 VRB04KT P6SM BKN015
      TEMPO 1912/1916 5SM HZ
     FM191600 VRB04KT P6SM SCT025
     FM192100 25010KT P6SM FEW025=

USA.gov is the U.S. government's official web portal to all federal, state and local government web resources and services.